ADDS METAR Data INFO
IDs: Format: Raw Decoded Include TAF

Data at: 1133 UTC 29 May 2017

KVCT 291109Z AUTO 11005KT 8SM -TSRA SCT110 22/21 A2993 RMK AO2 LTG DSNT ALQDS TSB03 P0002 T02220206
KVCT 291051Z AUTO 18003KT 6SM VCTS -RA BR SCT095 BKN110 22/21 A2991 RMK AO2 LTG DSNT ALQDS RAB29 TSB36E51 SLP128 P0002 T02220206
KVCT 291036Z AUTO 25004KT 8SM -TSRA BKN090 OVC110 22/21 A2992 RMK AO2 LTG DSNT NE-S RAB29 TSB36 P0001 T02220206
KVCT 290951Z AUTO 00000KT 10SM BKN090 BKN110 22/21 A2987 RMK AO2 LTG DSNT SW RAB28E48 SLP112 P0001 T02220206
KVCT 290851Z AUTO 09009KT 10SM CLR 23/20 A2989 RMK AO2 SLP118 T02280200 58016
KVCT 290751Z AUTO 10010KT 9SM SCT008 SCT027 24/22 A2990 RMK AO2 LTG DSNT SE SLP123 T02440222
KVCT 290659Z AUTO 03005KT 5SM BR OVC007 26/24 A2992 RMK AO2 LTG DSNT E-SW T02610244
KVCT 290651Z AUTO 06004KT 6SM VCTS BR BKN008 BKN021 OVC050 26/24 A2993 RMK AO2 LTG DSNT E-SW SLP132 T02610244
KVCT 290647Z AUTO 06003KT 5SM VCTS BR BKN008 BKN021 OVC050 26/24 A2993 RMK AO2 LTG DSNT ALQDS PRESFR
KVCT 290635Z AUTO 02004KT 6SM VCTS BR SCT009 BKN021 OVC045 26/24 A2994 RMK AO2 LTG DSNT ALQDS PRESFR T02610244
KVCT 290633Z AUTO 03003KT 6SM BR FEW009 BKN033 OVC050 26/24 A2995 RMK AO2 LTG DSNT ALQDS PRESFR T02610244
KVCT 290551Z AUTO 07004KT 6SM BR BKN032 BKN040 26/24 A2998 RMK AO2 LTG DSNT ALQDS SLP149 T02610244 10294 20261 403280256 50010
KVCT 290532Z AUTO 10006KT 7SM VCTS BKN034 OVC075 26/24 A2998 RMK AO2 LTG DSNT NE AND E AND W PRESFR T02610244
KVCT 290519Z AUTO 11003KT 7SM BKN032 OVC070 26/24 A3000 RMK AO2 LTG DSNT NE AND E AND W T02610244
KVCT 290504Z AUTO 12003KT 7SM VCTS SCT032 BKN070 26/24 A3001 RMK AO2 LTG DSNT ALQDS T02610244
KVCT 290451Z AUTO 09003KT 7SM OVC075 27/24 A3001 RMK AO2 LTG DSNT W SLP162 T02670244
KVCT 290351Z AUTO 07004KT 7SM CLR 26/24 A2996 RMK AO2 LTG DSNT N SLP143 T02610244
KVCT 290251Z AUTO 01004KT 8SM BKN031 26/24 A2995 RMK AO2 SLP139 T02610244 53035
KVCT 290223Z AUTO 07005KT 9SM SCT029 27/24 A2991 RMK AO2 PRESRR T02670239
KVCT 290151Z 09003KT 9SM BKN028 27/24 A2988 RMK AO2 PRESRR SLP116 T02720239
KVCT 290144Z 12003KT 9SM BKN029 27/24 A2987 RMK AO2 T02720239
KVCT 290134Z 16005KT 10SM SCT029 27/24 A2985 RMK AO2 T02720239
KVCT 290125Z 16006KT 10SM FEW022 BKN029 28/24 A2985 RMK AO2 T02780239
KVCT 290051Z COR 17009KT 9SM FEW020 28/24 A2984 RMK AO2 SLP101 T02830239
KVCT 282351Z 15009KT 10SM FEW025 29/24 A2984 RMK AO2 SLP104 T02940239 10328 20294 56012
KVCT 282304Z 14015KT 10SM FEW027 SCT032 30/23 A2984 RMK AO2 T03000233
KVCT 282251Z 17014KT 10SM BKN027 BKN033 31/23 A2985 RMK AO2 SLP106 T03110233
KVCT 282238Z 15014KT 10SM HZ BKN027 BKN035 32/24 A2983 RMK AO2 T03170239
KVCT 282151Z 16014KT 10SM HZ FEW037 31/23 A2986 RMK AO2 SLP108 T03110233
KVCT 282051Z 15018KT 10SM HZ FEW027 SCT039 32/24 A2988 RMK AO2 SLP116 T03170239 58016
KVCT 281951Z 14014KT 10SM HZ FEW024 33/25 A2989 RMK AO2 SLP121 T03280250
KVCT 281932Z 15018G23KT 9SM HZ FEW026 SCT031 32/25 A2990 RMK AO2 T03220250
KVCT 281859Z 14017G22KT 8SM HZ BKN028 31/24 A2991 RMK AO2 T03110244
KVCT 281851Z 14015G22KT 6SM HZ SCT026 SCT031 32/24 A2991 RMK AO2 SLP127 T03220244
KVCT 281751Z 14015KT 8SM HZ FEW024 BKN036 BKN044 32/24 A2992 RMK AO2 SLP131 T03220244 10322 20261 53006
KVCT 281715Z 12009KT 8SM HZ SCT025 BKN030 OVC043 31/24 A2993 RMK AO2 T03060244
KVCT 281651Z 13011G17KT 5SM HZ BKN025 BKN032 31/24 A2992 RMK AO2 SLP129 T03110244
KVCT 281633Z 15011KT 5SM HZ BKN027 BKN034 OVC043 31/24 A2991 RMK AO2 T03110244
KVCT 281551Z 15007KT 7SM HZ FEW019 BKN035 OVC042 31/24 A2991 RMK AO2 SLP125 T03110244
KVCT 281548Z 15008KT 7SM HZ FEW019 BKN035 OVC042 31/24 A2991 RMK AO2
KVCT 281541Z 17009KT 6SM HZ SCT021 BKN029 OVC038 31/24 A2991 RMK AO2 T03060244
KVCT 281517Z 17008KT 6SM HZ FEW017 BKN032 BKN041 30/24 A2990 RMK AO2 T03000244
KVCT 281508Z 17009KT 6SM HZ FEW019 BKN029 OVC034 30/24 A2990 RMK AO2 T03000244
KVCT 281451Z 13005KT 6SM HZ FEW015 SCT020 OVC030 29/24 A2990 RMK AO2 SLP125 T02890244 51022
KVCT 281351Z 19007KT 6SM HZ SCT015 OVC026 28/24 A2989 RMK AO2 SLP119 T02830244
KVCT 281251Z 13003KT 7SM OVC025 27/24 A2987 RMK AO2 SLP112 T02720244
KVCT 281151Z AUTO 18008KT 7SM OVC022 26/24 A2984 RMK AO2 SLP102 T02610239 10267 20256 53012
KVCT 281101Z AUTO 21004KT 7SM OVC016 26/24 A2982 RMK AO2 T02610239
KVCT 281051Z AUTO 18005KT 7SM OVC014 26/24 A2981 RMK AO2 SLP092 T02560239
KVCT 281002Z AUTO 16006KT 7SM OVC013 26/24 A2980 RMK AO2 T02560239
KVCT 280951Z AUTO 15007KT 6SM BR OVC015 26/24 A2979 RMK AO2 SLP086 T02560239
KVCT 280851Z AUTO 17009KT 6SM BR FEW008 OVC020 26/24 A2980 RMK AO2 SLP090 T02560244 58028
KVCT 280751Z AUTO 17011KT 7SM OVC017 26/24 A2983 RMK AO2 SLP100 T02610244
KVCT 280651Z AUTO 17009KT 7SM OVC019 26/24 A2986 RMK AO2 SLP110 T02610244
KVCT 280551Z AUTO 18005KT 7SM OVC021 26/24 A2989 RMK AO2 SLP118 T02610244 10278 20261 403280261 50006
KVCT 280531Z AUTO 19003KT 7SM SCT012 OVC020 26/24 A2989 RMK AO2 T02610244
KVCT 280451Z AUTO 17007KT 7SM BKN014 OVC018 27/24 A2989 RMK AO2 SLP119 T02670244
KVCT 280422Z AUTO 16009KT 8SM SCT008 OVC015 27/24 A2988 RMK AO2 T02670244
KVCT 280359Z AUTO 15009KT 8SM BKN008 OVC014 27/24 A2988 RMK AO2 CIG 007V012 T02670244
KVCT 280351Z AUTO 15008KT 8SM BKN010 OVC014 27/24 A2989 RMK AO2 CIG 007V011 SLP119 T02670244
KVCT 280251Z 14008KT 8SM OVC011 27/24 A2987 RMK AO2 SLP112 T02670244 51010
KVCT 280151Z 13006KT 9SM BKN014 26/24 A2986 RMK AO2 SLP110 T02610239
KVCT 280146Z 14007KT 9SM BKN014 26/24 A2986 RMK AO2
KVCT 280051Z 15012KT 9SM SCT017 28/24 A2985 RMK AO2 SLP106 T02780239
KVCT 272351Z 15014KT 10SM FEW019 29/24 A2984 RMK AO2 SLP102 T02940239 10328 20294 56009


Page loaded:  11:33 UTC  |   04:33 AM Pacific  |   05:33 AM Mountain  |   06:33 AM Central  |   07:33 AM Eastern

 

ADVISORIES

FORECASTS

FORECASTS

OBSERVATIONS

USER TOOLS

ABOUT US